Time;durP1;ratioP1;P1;durP2;ratioP2;P2;SDS_P1;SDS_P2;PMS_P1;PMS_P2;Temp;Humidity;BMP_temperature;BMP_pressure;BME280_temperature;BME280_humidity;BME280_pressure;Samples;Min_cycle;Max_cycle;Signal;HPM_P1;HPM_P2
2024/01/06 04:02:30;;;;;;;3.15;2.40;;;25.30;28.20;;;;;;5031673;22;46612;-84
2024/01/06 04:04:56;;;;;;;2.67;2.30;;;25.30;28.20;;;;;;4962545;28;45394;-84
2024/01/06 04:07:22;;;;;;;2.40;1.90;;;25.30;28.20;;;;;;4965841;28;45220;-83
2024/01/06 04:09:48;;;;;;;2.22;1.90;;;25.30;28.20;;;;;;4966947;28;46721;-84
2024/01/06 04:12:14;;;;;;;2.72;2.20;;;25.30;28.20;;;;;;4967508;28;45300;-84
2024/01/06 04:14:40;;;;;;;2.38;1.80;;;25.30;28.20;;;;;;4986186;28;45453;-85
2024/01/06 04:17:06;;;;;;;2.50;1.80;;;25.30;28.10;;;;;;4961213;28;45545;-84
2024/01/06 04:19:34;;;;;;;2.88;1.90;;;25.30;28.10;;;;;;4970898;28;67101;-84
2024/01/06 04:22:00;;;;;;;2.17;1.90;;;25.30;28.10;;;;;;4982836;28;45515;-84
2024/01/06 04:24:26;;;;;;;2.60;2.00;;;25.30;28.10;;;;;;4986139;28;45251;-84
2024/01/06 04:26:52;;;;;;;2.65;1.77;;;25.30;28.10;;;;;;4960496;28;45043;-84
2024/01/06 04:29:18;;;;;;;2.58;1.90;;;25.30;28.10;;;;;;4971424;28;47272;-84
2024/01/06 04:31:44;;;;;;;2.90;1.95;;;25.30;28.10;;;;;;4944801;28;45370;-84
2024/01/06 04:34:09;;;;;;;2.22;1.80;;;25.30;28.10;;;;;;4968335;28;45805;-85
2024/01/06 04:36:35;;;;;;;2.93;1.80;;;25.30;28.10;;;;;;4971217;28;44962;-84
2024/01/06 04:39:01;;;;;;;3.05;1.80;;;25.30;28.10;;;;;;4984094;28;46249;-85
2024/01/06 04:41:26;;;;;;;2.90;1.90;;;25.30;28.10;;;;;;4981132;28;46718;-84
2024/01/06 04:43:52;;;;;;;2.70;1.80;;;25.30;28.10;;;;;;4950816;28;45405;-84
2024/01/06 04:46:18;;;;;;;2.23;1.77;;;25.30;28.10;;;;;;4978380;28;45146;-84
2024/01/06 04:48:44;;;;;;;2.00;1.70;;;25.30;28.10;;;;;;4998346;28;45627;-84
2024/01/06 04:51:11;;;;;;;2.07;1.67;;;25.30;28.10;;;;;;4949699;28;44917;-84
2024/01/06 04:53:37;;;;;;;2.55;1.85;;;25.30;28.10;;;;;;4970198;28;44995;-84
2024/01/06 04:56:03;;;;;;;2.20;1.80;;;25.30;28.10;;;;;;4966074;28;45249;-84
2024/01/06 04:58:30;;;;;;;1.97;1.77;;;25.30;28.10;;;;;;4969122;28;46359;-84
2024/01/06 05:00:56;;;;;;;2.25;1.65;;;25.30;28.10;;;;;;4955029;28;45908;-84
2024/01/06 05:03:22;;;;;;;2.67;1.70;;;25.30;28.10;;;;;;4974047;28;45378;-83
2024/01/06 05:05:48;;;;;;;2.20;1.77;;;25.30;28.10;;;;;;4952492;28;45170;-84
2024/01/06 05:08:14;;;;;;;2.00;1.70;;;25.30;28.10;;;;;;4971475;28;45401;-85
2024/01/06 05:10:40;;;;;;;1.98;1.70;;;25.30;28.10;;;;;;4964270;28;45931;-85
2024/01/06 05:13:06;;;;;;;2.20;1.52;;;25.30;28.10;;;;;;4982624;28;45371;-86
2024/01/06 05:15:31;;;;;;;1.88;1.65;;;25.30;28.00;;;;;;4987218;28;45160;-83
2024/01/06 05:17:57;;;;;;;1.80;1.50;;;25.30;28.00;;;;;;4968141;28;46102;-84
2024/01/06 05:20:23;;;;;;;2.03;1.40;;;25.30;28.00;;;;;;4983102;28;45567;-83
2024/01/06 05:22:49;;;;;;;1.90;1.53;;;25.30;28.00;;;;;;4970941;28;45063;-84
2024/01/06 05:25:14;;;;;;;2.20;1.67;;;25.20;27.90;;;;;;4966460;28;45573;-83
2024/01/06 05:27:40;;;;;;;2.10;1.53;;;25.30;28.00;;;;;;4982803;28;46109;-83
2024/01/06 05:30:09;;;;;;;1.98;1.50;;;25.20;27.90;;;;;;4978064;28;44985;-84
2024/01/06 05:32:37;;;;;;;2.35;1.70;;;25.20;28.00;;;;;;4953698;28;45556;-82
2024/01/06 05:35:12;;;;;;;2.45;1.80;;;25.20;28.00;;;;;;4979754;28;45335;-83
2024/01/06 05:37:38;;;;;;;2.03;1.80;;;25.20;28.00;;;;;;4969046;28;46232;-84
2024/01/06 05:40:06;;;;;;;2.20;1.50;;;25.20;27.90;;;;;;4973066;28;45841;-85
2024/01/06 05:42:32;;;;;;;3.42;1.90;;;25.20;28.00;;;;;;4968211;28;45331;-84
2024/01/06 05:44:58;;;;;;;3.15;2.40;;;25.20;28.00;;;;;;4985970;28;45095;-84
2024/01/06 05:47:24;;;;;;;3.07;2.20;;;25.20;28.00;;;;;;4932533;28;46096;-83
2024/01/06 05:49:49;;;;;;;2.67;1.93;;;25.20;28.00;;;;;;4933515;28;45507;-85
2024/01/06 05:52:15;;;;;;;3.13;2.10;;;25.20;28.00;;;;;;4980383;28;46682;-84
2024/01/06 05:54:42;;;;;;;3.20;2.28;;;25.20;28.00;;;;;;4966896;28;45746;-84
2024/01/06 05:57:08;;;;;;;2.65;2.08;;;25.20;28.00;;;;;;4974653;28;45601;-84
2024/01/06 05:59:33;;;;;;;2.97;2.20;;;25.20;28.00;;;;;;4947935;28;45506;-84
2024/01/06 06:02:00;;;;;;;2.92;2.08;;;25.20;28.00;;;;;;4965144;28;45589;-84
2024/01/06 06:04:25;;;;;;;3.08;2.25;;;25.20;28.00;;;;;;4965411;28;44850;-84
2024/01/06 06:06:52;;;;;;;2.77;2.17;;;25.20;27.90;;;;;;4967970;28;45587;-84
2024/01/06 06:09:17;;;;;;;3.35;2.30;;;25.20;27.90;;;;;;4980386;28;45219;-83
2024/01/06 06:11:44;;;;;;;2.90;2.05;;;25.20;28.00;;;;;;4953003;28;44998;-84
2024/01/06 06:14:10;;;;;;;2.95;2.03;;;25.20;28.00;;;;;;4982954;28;45134;-84
2024/01/06 06:16:36;;;;;;;3.00;2.25;;;25.10;27.90;;;;;;4940443;28;45885;-84
2024/01/06 06:19:03;;;;;;;2.83;2.25;;;25.10;27.90;;;;;;4966129;28;45701;-83
2024/01/06 06:21:28;;;;;;;2.88;2.00;;;25.20;27.90;;;;;;4961527;28;45183;-85
2024/01/06 06:23:55;;;;;;;2.85;2.10;;;25.10;27.90;;;;;;4945521;28;45416;-84
2024/01/06 06:26:21;;;;;;;2.58;1.90;;;25.10;27.90;;;;;;4964184;28;46622;-85
2024/01/06 06:28:47;;;;;;;2.53;1.90;;;25.10;27.90;;;;;;4985553;28;45222;-84
2024/01/06 06:31:13;;;;;;;2.80;2.00;;;25.10;27.90;;;;;;4974965;28;45179;-85
2024/01/06 06:33:39;;;;;;;4.10;2.30;;;25.10;27.90;;;;;;4986129;28;44935;-84
2024/01/06 06:36:06;;;;;;;2.47;1.98;;;25.10;27.90;;;;;;4973576;28;45432;-85
2024/01/06 06:38:32;;;;;;;2.88;1.95;;;25.10;27.90;;;;;;5002672;28;45321;-84
2024/01/06 06:40:58;;;;;;;2.88;2.00;;;25.10;27.90;;;;;;4964212;28;45426;-84
2024/01/06 06:43:24;;;;;;;2.97;2.30;;;25.10;27.90;;;;;;4987542;28;45644;-84
2024/01/06 06:45:50;;;;;;;2.90;1.83;;;25.10;27.90;;;;;;4958925;28;46418;-85
2024/01/06 06:48:19;;;;;;;2.25;1.90;;;25.10;27.90;;;;;;4968260;28;45511;-83
2024/01/06 06:50:45;;;;;;;2.30;1.80;;;25.10;27.90;;;;;;4993197;28;45571;-83
2024/01/06 06:53:11;;;;;;;2.45;1.80;;;25.00;27.90;;;;;;4966430;28;46826;-84
2024/01/06 06:55:38;;;;;;;2.47;1.67;;;25.10;27.90;;;;;;4979647;28;46474;-84
2024/01/06 06:58:05;;;;;;;2.38;1.67;;;25.10;27.90;;;;;;4979409;28;45338;-85
2024/01/06 07:00:31;;;;;;;2.58;1.80;;;25.00;27.90;;;;;;4980189;28;45328;-88
2024/01/06 07:02:57;;;;;;;2.10;1.73;;;25.10;27.90;;;;;;4965685;28;44876;-84
2024/01/06 07:05:23;;;;;;;2.60;2.03;;;25.00;27.90;;;;;;4980261;28;46957;-84
2024/01/06 07:07:48;;;;;;;3.35;2.00;;;25.00;27.90;;;;;;4980204;28;45544;-83
2024/01/06 07:10:15;;;;;;;2.22;1.73;;;25.00;27.80;;;;;;4970955;28;45076;-83
2024/01/06 07:12:41;;;;;;;2.30;1.73;;;25.00;27.80;;;;;;4976519;28;45280;-84
2024/01/06 07:15:09;;;;;;;2.42;1.85;;;25.00;27.90;;;;;;4960859;28;45930;-83
2024/01/06 07:17:35;;;;;;;1.92;1.70;;;25.00;27.80;;;;;;4981178;28;45753;-84
2024/01/06 07:20:01;;;;;;;2.63;1.73;;;25.00;27.90;;;;;;4983483;28;45474;-83
2024/01/06 07:22:27;;;;;;;2.78;1.83;;;25.00;27.80;;;;;;4984589;28;45310;-84
2024/01/06 07:24:53;;;;;;;2.38;1.70;;;25.00;27.80;;;;;;4982846;28;45333;-84
2024/01/06 07:27:19;;;;;;;2.40;1.80;;;25.00;27.90;;;;;;4982530;28;45192;-84
2024/01/06 07:29:45;;;;;;;3.10;1.80;;;25.00;27.80;;;;;;4988561;28;45284;-84
2024/01/06 07:32:12;;;;;;;3.08;1.60;;;25.00;27.80;;;;;;4943130;28;45250;-84
2024/01/06 07:34:39;;;;;;;2.72;1.60;;;24.90;27.80;;;;;;4971136;28;45236;-82
2024/01/06 07:37:06;;;;;;;1.85;1.40;;;24.90;27.80;;;;;;4964937;28;45601;-84
2024/01/06 07:39:32;;;;;;;2.10;1.60;;;24.90;27.80;;;;;;4953937;28;45205;-84
2024/01/06 07:41:57;;;;;;;1.93;1.63;;;24.90;27.80;;;;;;4982394;28;45219;-84
2024/01/06 07:44:24;;;;;;;2.08;1.60;;;24.90;27.80;;;;;;4971843;28;46142;-84
2024/01/06 07:46:52;;;;;;;2.20;1.73;;;24.90;27.80;;;;;;4942883;28;45563;-84
2024/01/06 07:49:18;;;;;;;2.17;1.60;;;24.90;27.80;;;;;;4955064;28;45866;-85
2024/01/06 07:51:44;;;;;;;2.90;1.88;;;24.90;27.80;;;;;;4965556;28;45618;-84
2024/01/06 07:54:11;;;;;;;1.98;1.48;;;24.90;27.80;;;;;;4989692;28;45515;-84
2024/01/06 07:56:37;;;;;;;2.22;1.80;;;24.90;27.80;;;;;;4984966;28;45180;-83
2024/01/06 07:59:07;;;;;;;2.20;1.63;;;24.90;27.80;;;;;;4962512;28;45232;-83
2024/01/06 08:01:32;;;;;;;2.30;1.50;;;24.90;27.80;;;;;;4965979;28;45497;-83
2024/01/06 08:03:59;;;;;;;2.43;1.63;;;24.90;27.80;;;;;;4943487;28;46982;-83
2024/01/06 08:06:26;;;;;;;2.67;1.67;;;24.90;27.80;;;;;;4982059;28;45714;-83
2024/01/06 08:08:51;;;;;;;2.27;1.80;;;24.90;27.80;;;;;;4984352;28;45288;-81
2024/01/06 08:11:17;;;;;;;2.13;1.70;;;24.80;27.80;;;;;;4969568;28;45418;-84
2024/01/06 08:13:43;;;;;;;2.83;1.73;;;24.80;27.80;;;;;;4984206;28;45870;-83
2024/01/06 08:16:09;;;;;;;2.95;1.40;;;24.90;27.80;;;;;;4991527;28;45238;-83
2024/01/06 08:18:35;;;;;;;2.87;1.77;;;24.80;27.70;;;;;;4950722;28;45331;-83
2024/01/06 08:21:01;;;;;;;2.00;1.48;;;24.80;27.80;;;;;;4961124;28;45186;-83
2024/01/06 08:23:27;;;;;;;3.33;1.80;;;24.80;27.80;;;;;;4989134;28;46273;-83
2024/01/06 08:25:53;;;;;;;2.30;1.60;;;24.80;27.80;;;;;;4957535;28;45531;-83
2024/01/06 08:28:19;;;;;;;1.97;1.60;;;24.80;27.80;;;;;;4953484;28;45785;-83
2024/01/06 08:30:46;;;;;;;2.13;1.60;;;24.80;27.80;;;;;;4947529;28;45545;-83
2024/01/06 08:33:12;;;;;;;2.10;1.60;;;24.80;27.80;;;;;;4984258;28;47602;-83
2024/01/06 08:35:40;;;;;;;2.33;1.93;;;24.80;27.80;;;;;;4968223;28;45316;-83
2024/01/06 08:38:28;;;;;;;2.35;1.80;;;24.80;27.80;;;;;;4975660;28;45348;-82
2024/01/06 08:40:54;;;;;;;2.92;1.90;;;24.80;27.80;;;;;;4964906;28;44780;-83
2024/01/06 08:43:20;;;;;;;2.97;1.77;;;24.70;27.80;;;;;;4967790;28;45546;-83
2024/01/06 08:45:47;;;;;;;2.65;1.77;;;24.70;27.70;;;;;;4959739;28;45312;-83
2024/01/06 08:48:15;;;;;;;1.85;1.67;;;24.70;27.80;;;;;;4983250;28;45278;-83
2024/01/06 08:50:40;;;;;;;2.97;1.90;;;24.70;27.80;;;;;;4986915;28;45140;-82
2024/01/06 08:53:06;;;;;;;2.00;1.70;;;24.70;27.80;;;;;;4967895;28;45265;-83
2024/01/06 08:55:32;;;;;;;2.30;1.70;;;24.70;27.80;;;;;;4967120;28;45515;-86
2024/01/06 08:57:58;;;;;;;1.98;1.60;;;24.70;27.80;;;;;;4980744;28;45364;-82
2024/01/06 09:00:24;;;;;;;3.10;2.00;;;24.70;27.80;;;;;;4994539;28;45757;-83
2024/01/06 09:02:50;;;;;;;2.03;1.70;;;24.70;27.80;;;;;;4956594;28;46055;-82
2024/01/06 09:05:16;;;;;;;3.22;1.80;;;24.70;27.80;;;;;;4957977;28;44750;-83
2024/01/06 09:07:43;;;;;;;3.00;1.90;;;24.60;27.80;;;;;;5000917;28;45383;-83
2024/01/06 09:10:09;;;;;;;2.90;2.13;;;24.60;27.80;;;;;;4979868;28;44854;-84
2024/01/06 09:12:35;;;;;;;2.73;1.90;;;24.60;27.80;;;;;;4964283;28;46295;-82
2024/01/06 09:15:09;;;;;;;2.58;2.00;;;24.60;27.80;;;;;;4970616;28;45253;-82
2024/01/06 09:17:35;;;;;;;2.23;1.70;;;24.60;27.80;;;;;;4965451;28;45025;-83
2024/01/06 09:20:02;;;;;;;2.08;1.70;;;24.60;27.80;;;;;;4983323;28;45222;-83
2024/01/06 09:22:28;;;;;;;2.45;1.70;;;24.60;27.90;;;;;;4982734;28;46971;-83
2024/01/06 09:24:54;;;;;;;2.60;2.00;;;24.60;27.80;;;;;;4965537;28;45226;-83
2024/01/06 09:27:20;;;;;;;2.73;1.93;;;24.50;27.80;;;;;;4996492;28;44924;-83
2024/01/06 09:29:46;;;;;;;2.45;1.83;;;24.60;27.90;;;;;;4974747;28;45255;-83
2024/01/06 09:32:12;;;;;;;2.05;1.77;;;24.50;27.80;;;;;;4957181;28;46597;-83
2024/01/06 09:34:38;;;;;;;1.95;1.63;;;24.50;27.90;;;;;;4974888;28;45411;-81
2024/01/06 09:37:04;;;;;;;2.90;1.90;;;24.50;27.90;;;;;;4947898;28;45234;-84
2024/01/06 09:39:31;;;;;;;3.90;1.87;;;24.50;27.90;;;;;;4976330;28;45532;-83
2024/01/06 09:41:57;;;;;;;2.97;1.80;;;24.50;27.90;;;;;;4957540;28;45822;-83
2024/01/06 09:44:23;;;;;;;2.60;1.80;;;24.50;27.90;;;;;;4987697;28;45269;-81
2024/01/06 09:46:50;;;;;;;2.35;1.70;;;24.50;27.90;;;;;;4955943;28;45555;-82
2024/01/06 09:49:18;;;;;;;2.75;1.90;;;24.50;27.90;;;;;;4969646;28;45689;-82
2024/01/06 09:51:50;;;;;;;2.23;1.60;;;24.50;27.90;;;;;;4984500;28;47522;-83
2024/01/06 09:54:16;;;;;;;2.10;1.73;;;24.40;27.90;;;;;;5002445;28;45538;-82
2024/01/06 09:56:42;;;;;;;2.33;1.70;;;24.50;27.90;;;;;;4967223;28;45577;-83
2024/01/06 09:59:07;;;;;;;2.30;1.87;;;24.40;27.90;;;;;;4984267;28;45275;-83
2024/01/06 10:01:33;;;;;;;2.70;1.67;;;24.40;27.90;;;;;;4946964;28;45337;-82
2024/01/06 10:03:59;;;;;;;2.53;1.87;;;24.50;28.00;;;;;;4960519;28;45323;-83
2024/01/06 10:06:25;;;;;;;2.90;1.55;;;24.40;27.90;;;;;;4960635;28;45312;-82
2024/01/06 10:08:52;;;;;;;3.13;1.70;;;24.40;27.90;;;;;;4967721;28;45485;-83
2024/01/06 10:11:18;;;;;;;2.58;1.80;;;24.40;27.90;;;;;;4951028;28;46928;-83
2024/01/06 10:13:44;;;;;;;2.75;1.55;;;24.40;28.00;;;;;;4959564;28;45474;-82
2024/01/06 10:16:10;;;;;;;4.07;1.60;;;24.40;27.90;;;;;;4975735;28;45670;-83
2024/01/06 10:18:36;;;;;;;2.13;1.70;;;24.40;28.00;;;;;;4988868;28;45351;-82
2024/01/06 10:21:05;;;;;;;2.13;1.52;;;24.40;28.00;;;;;;4941563;28;46403;-82
2024/01/06 10:23:31;;;;;;;3.55;2.08;;;24.40;28.00;;;;;;4955721;28;45293;-82
2024/01/06 10:25:57;;;;;;;2.13;1.60;;;24.40;28.00;;;;;;4947778;28;45213;-83
2024/01/06 10:28:23;;;;;;;2.42;1.77;;;24.40;28.00;;;;;;4987347;28;44840;-82
2024/01/06 10:30:55;;;;;;;2.38;1.60;;;24.40;28.00;;;;;;4949119;28;46751;-83
2024/01/06 10:33:22;;;;;;;3.47;1.70;;;24.40;28.10;;;;;;4978099;28;45849;-86
2024/01/06 10:35:49;;;;;;;1.73;1.60;;;24.40;28.10;;;;;;4936810;28;45319;-83
2024/01/06 10:38:15;;;;;;;3.40;1.70;;;24.40;28.10;;;;;;4998887;28;45481;-82
2024/01/06 10:40:56;;;;;;;2.13;1.60;;;24.30;28.00;;;;;;4996513;28;45361;-83
2024/01/06 10:43:23;;;;;;;2.30;1.83;;;24.40;28.10;;;;;;4963322;28;45968;-82
2024/01/06 10:45:49;;;;;;;2.60;1.70;;;24.30;28.10;;;;;;4928555;28;45382;-82
2024/01/06 10:48:14;;;;;;;2.50;1.70;;;24.40;28.10;;;;;;4954398;28;45854;-83
2024/01/06 10:50:40;;;;;;;2.27;1.60;;;24.30;28.10;;;;;;4983306;28;45464;-82
2024/01/06 10:53:07;;;;;;;2.37;1.67;;;24.30;28.10;;;;;;4969548;28;45227;-82
2024/01/06 10:55:32;;;;;;;2.45;1.60;;;24.40;28.10;;;;;;4964416;28;45246;-82
2024/01/06 10:57:58;;;;;;;1.90;1.50;;;24.30;28.10;;;;;;4965539;28;45646;-82
2024/01/06 11:00:24;;;;;;;2.00;1.60;;;24.30;28.10;;;;;;4965069;28;45591;-81
2024/01/06 11:02:52;;;;;;;2.13;1.60;;;24.30;28.10;;;;;;4969772;28;45261;-82
2024/01/06 11:05:18;;;;;;;1.85;1.50;;;24.30;28.60;;;;;;4959098;28;45604;-82
2024/01/06 11:07:51;;;;;;;2.13;1.50;;;24.30;28.20;;;;;;4965278;28;45230;-83
2024/01/06 11:10:17;;;;;;;2.15;1.70;;;24.30;28.20;;;;;;4957920;28;45640;-82
2024/01/06 11:12:43;;;;;;;3.10;1.53;;;24.30;28.20;;;;;;4975477;28;45512;-82
2024/01/06 11:15:32;;;;;;;2.47;1.58;;;24.20;28.20;;;;;;4965331;28;44964;-80
2024/01/06 11:17:58;;;;;;;1.70;1.60;;;24.30;28.20;;;;;;4972895;28;45099;-82
2024/01/06 11:20:26;;;;;;;1.80;1.60;;;24.30;28.20;;;;;;4966719;28;46823;-81
2024/01/06 11:22:52;;;;;;;1.92;1.58;;;24.20;28.20;;;;;;4960492;28;45009;-82
2024/01/06 11:25:38;;;;;;;1.98;1.60;;;24.20;28.20;;;;;;4972911;28;45875;-82
2024/01/06 11:28:03;;;;;;;2.55;1.80;;;24.30;28.30;;;;;;4961311;28;45102;-81
2024/01/06 11:30:29;;;;;;;2.47;1.70;;;24.20;28.20;;;;;;4955875;28;46147;-81
2024/01/06 11:33:01;;;;;;;2.73;1.70;;;24.20;28.30;;;;;;4990074;28;45123;-82
2024/01/06 11:35:27;;;;;;;2.33;1.70;;;24.20;28.30;;;;;;4966856;28;45287;-82
2024/01/06 11:37:58;;;;;;;1.95;1.65;;;24.20;28.30;;;;;;4998633;28;45913;-81
2024/01/06 11:40:32;;;;;;;2.30;1.80;;;24.20;28.30;;;;;;4951516;28;46325;-81
2024/01/06 11:43:11;;;;;;;2.05;1.60;;;24.20;28.30;;;;;;4987002;28;45296;-82
2024/01/06 11:45:38;;;;;;;2.90;1.95;;;24.20;28.30;;;;;;4951989;28;45260;-81
2024/01/06 11:48:07;;;;;;;1.75;1.60;;;24.20;28.30;;;;;;4995574;28;45566;-82
2024/01/06 11:50:35;;;;;;;2.75;1.50;;;24.20;28.30;;;;;;4952881;28;46292;-82
2024/01/06 11:53:01;;;;;;;2.42;1.67;;;24.20;28.40;;;;;;4974052;28;45238;-82
2024/01/06 11:55:27;;;;;;;2.83;1.80;;;24.20;28.40;;;;;;4959667;28;44913;-82
2024/01/06 11:57:56;;;;;;;1.80;1.50;;;24.20;28.40;;;;;;4974067;28;45289;-82
2024/01/06 12:00:21;;;;;;;2.95;1.90;;;24.20;28.40;;;;;;4961586;28;46169;-81
2024/01/06 12:02:47;;;;;;;2.55;1.63;;;24.20;28.40;;;;;;4980772;28;45474;-85
2024/01/06 12:05:17;;;;;;;2.33;1.77;;;24.20;28.80;;;;;;4952677;28;45753;-81
2024/01/06 12:07:56;;;;;;;2.90;2.00;;;24.20;28.40;;;;;;4982106;28;45172;-82
2024/01/06 12:10:22;;;;;;;2.15;1.77;;;24.10;28.40;;;;;;4972758;28;45299;-82
2024/01/06 12:13:01;;;;;;;2.95;1.90;;;24.10;28.40;;;;;;4948114;28;45462;-81
2024/01/06 12:15:28;;;;;;;2.50;1.83;;;24.10;28.40;;;;;;4949774;28;45259;-84
2024/01/06 12:17:54;;;;;;;2.45;1.83;;;24.10;28.40;;;;;;4962122;28;45351;-82
2024/01/06 12:20:21;;;;;;;1.90;1.70;;;24.10;28.40;;;;;;4953296;28;46084;-81
2024/01/06 12:22:46;;;;;;;1.65;1.52;;;24.10;28.40;;;;;;4957582;28;45937;-82
2024/01/06 12:25:15;;;;;;;2.13;1.67;;;24.10;28.40;;;;;;4975770;28;45524;-82
2024/01/06 12:27:44;;;;;;;2.33;1.50;;;24.10;28.40;;;;;;4967159;28;45398;-83
2024/01/06 12:30:18;;;;;;;2.25;1.33;;;24.10;28.40;;;;;;4986232;28;46468;-82
2024/01/06 12:32:48;;;;;;;2.10;1.70;;;24.10;28.40;;;;;;4969451;28;45505;-82
2024/01/06 12:35:14;;;;;;;1.70;1.50;;;24.10;28.40;;;;;;4971967;28;45258;-83
2024/01/06 12:37:41;;;;;;;2.63;1.40;;;24.10;28.40;;;;;;4975487;28;44990;-83
2024/01/06 12:40:10;;;;;;;1.90;1.40;;;24.10;28.40;;;;;;4985025;28;46699;-82
2024/01/06 12:42:36;;;;;;;2.50;1.50;;;24.00;28.40;;;;;;4970278;28;44915;-83
2024/01/06 12:45:06;;;;;;;2.00;1.40;;;24.00;28.40;;;;;;4992141;28;45277;-80
2024/01/06 12:47:32;;;;;;;2.10;1.47;;;24.00;28.40;;;;;;4943249;28;45623;-83
2024/01/06 12:49:58;;;;;;;2.35;1.55;;;24.00;28.40;;;;;;4965456;28;46500;-83
2024/01/06 12:52:24;;;;;;;2.03;1.45;;;24.00;28.50;;;;;;4959774;28;45503;-83
2024/01/06 12:54:50;;;;;;;1.73;1.35;;;24.00;28.50;;;;;;4989539;28;45769;-82
2024/01/06 12:57:16;;;;;;;2.15;1.50;;;24.00;28.50;;;;;;4951581;28;45527;-83
2024/01/06 12:59:43;;;;;;;2.37;1.50;;;24.00;28.50;;;;;;4962997;28;46481;-83
2024/01/06 13:02:09;;;;;;;1.67;1.40;;;24.00;28.50;;;;;;4965900;28;45269;-83
2024/01/06 13:04:35;;;;;;;1.90;1.40;;;24.00;28.50;;;;;;4969886;28;45311;-82
2024/01/06 13:07:01;;;;;;;2.47;1.60;;;24.00;28.50;;;;;;4968626;28;45331;-82
2024/01/06 13:09:28;;;;;;;1.90;1.40;;;24.00;28.50;;;;;;4988547;28;46502;-83
2024/01/06 13:11:55;;;;;;;2.47;1.83;;;24.00;28.50;;;;;;4965592;28;45232;-82
2024/01/06 13:14:22;;;;;;;1.85;1.60;;;23.90;28.50;;;;;;4979542;28;45373;-83
2024/01/06 13:16:48;;;;;;;1.92;1.65;;;23.90;28.50;;;;;;4982181;28;45221;-82
2024/01/06 13:19:14;;;;;;;1.95;1.75;;;23.90;28.50;;;;;;5004496;28;45644;-82
2024/01/06 13:21:40;;;;;;;1.95;1.70;;;23.90;28.50;;;;;;4967959;28;45055;-83
2024/01/06 13:24:07;;;;;;;2.53;1.88;;;23.90;28.60;;;;;;4988970;28;45401;-83
2024/01/06 13:26:33;;;;;;;2.00;1.70;;;23.90;28.60;;;;;;4964464;28;45203;-83
2024/01/06 13:28:59;;;;;;;2.50;1.80;;;23.90;28.60;;;;;;5000357;28;46569;-83
2024/01/06 13:31:26;;;;;;;3.63;2.13;;;23.90;28.60;;;;;;4963458;28;45795;-82
2024/01/06 13:33:52;;;;;;;2.53;1.90;;;23.90;28.60;;;;;;5005045;28;44754;-83
2024/01/06 13:36:20;;;;;;;2.57;1.80;;;23.90;28.60;;;;;;4969126;28;45307;-82
2024/01/06 13:38:45;;;;;;;2.45;1.90;;;23.90;28.60;;;;;;4947637;28;46020;-82
2024/01/06 13:41:12;;;;;;;2.40;1.75;;;23.90;28.60;;;;;;4966326;28;44910;-82
2024/01/06 13:43:38;;;;;;;3.50;1.90;;;23.90;28.60;;;;;;4966115;28;45829;-83
2024/01/06 13:46:04;;;;;;;2.00;1.67;;;23.90;28.60;;;;;;4978360;28;45541;-82
2024/01/06 13:48:29;;;;;;;2.72;2.00;;;23.80;28.60;;;;;;4987184;28;45855;-82
2024/01/06 13:50:57;;;;;;;2.87;1.80;;;23.80;28.60;;;;;;4960594;28;45709;-83
2024/01/06 13:53:24;;;;;;;1.65;1.55;;;23.80;28.60;;;;;;4971918;28;45483;-82
2024/01/06 13:55:50;;;;;;;2.43;1.67;;;23.80;28.70;;;;;;4981356;28;45485;-82
2024/01/06 13:58:15;;;;;;;1.83;1.63;;;23.80;28.70;;;;;;4983862;28;46381;-83
2024/01/06 14:00:43;;;;;;;2.10;1.60;;;23.80;29.10;;;;;;4941445;28;45145;-83
2024/01/06 14:03:09;;;;;;;1.90;1.50;;;23.80;28.70;;;;;;4952102;28;45368;-85
2024/01/06 14:05:34;;;;;;;2.38;1.73;;;23.80;28.70;;;;;;4967794;28;46014;-83
2024/01/06 14:08:00;;;;;;;1.95;1.58;;;23.80;28.70;;;;;;4956611;28;45425;-83
2024/01/06 14:10:26;;;;;;;2.27;1.43;;;23.80;28.70;;;;;;4950415;28;45228;-83
2024/01/06 14:12:55;;;;;;;1.88;1.50;;;23.80;28.70;;;;;;4955454;28;46308;-82
2024/01/06 14:15:21;;;;;;;1.70;1.50;;;23.80;28.70;;;;;;4951478;28;45450;-83
2024/01/06 14:17:51;;;;;;;2.17;1.65;;;23.70;28.70;;;;;;4983845;28;45554;-83
2024/01/06 14:20:17;;;;;;;1.83;1.40;;;23.80;28.70;;;;;;4976142;28;45261;-83
2024/01/06 14:22:46;;;;;;;2.15;1.50;;;23.70;28.70;;;;;;4968309;28;45379;-83
2024/01/06 14:25:34;;;;;;;3.07;1.30;;;23.70;28.70;;;;;;4985663;28;45256;-83
2024/01/06 14:28:01;;;;;;;2.30;1.50;;;23.70;28.80;;;;;;4948918;28;46048;-82
2024/01/06 14:30:27;;;;;;;2.30;1.45;;;23.70;28.80;;;;;;4963484;28;44741;-81
2024/01/06 14:32:53;;;;;;;2.85;1.55;;;23.70;28.80;;;;;;4957963;28;45691;-82
2024/01/06 14:35:19;;;;;;;2.88;1.30;;;23.70;28.80;;;;;;4980794;28;45020;-83
2024/01/06 14:37:44;;;;;;;1.77;1.30;;;23.70;28.80;;;;;;4968081;28;46307;-82
2024/01/06 14:40:13;;;;;;;2.15;1.45;;;23.70;28.80;;;;;;4947954;28;45146;-83
2024/01/06 14:42:39;;;;;;;1.60;1.20;;;23.70;28.80;;;;;;4949784;28;45017;-82
2024/01/06 14:45:08;;;;;;;2.70;1.60;;;23.70;28.80;;;;;;4984337;28;45414;-82
2024/01/06 14:47:33;;;;;;;1.80;1.40;;;23.70;28.90;;;;;;4953140;28;46034;-82
2024/01/06 14:49:59;;;;;;;1.80;1.40;;;23.70;28.80;;;;;;4967627;28;45414;-82
2024/01/06 14:52:25;;;;;;;2.13;1.50;;;23.70;28.90;;;;;;4954438;28;46096;-82
2024/01/06 14:54:52;;;;;;;1.73;1.40;;;23.70;28.90;;;;;;4953921;28;45193;-83
2024/01/06 14:57:17;;;;;;;2.40;1.38;;;23.70;28.90;;;;;;4998921;28;46464;-81
2024/01/06 14:59:46;;;;;;;1.40;1.20;;;23.60;29.30;;;;;;4959594;28;44743;-83
2024/01/06 15:02:13;;;;;;;2.35;1.40;;;23.70;28.90;;;;;;4953291;28;45316;-82
2024/01/06 15:04:39;;;;;;;2.38;1.45;;;23.60;28.90;;;;;;4986010;28;45507;-82
2024/01/06 15:07:05;;;;;;;2.20;1.50;;;23.60;28.90;;;;;;4982613;28;46315;-83
2024/01/06 15:09:31;;;;;;;2.13;1.40;;;23.60;28.90;;;;;;4951228;28;45642;-82
2024/01/06 15:11:57;;;;;;;1.90;1.48;;;23.60;28.90;;;;;;4951606;28;45207;-83
2024/01/06 15:14:23;;;;;;;1.65;1.45;;;23.60;28.90;;;;;;4970044;28;45058;-83
2024/01/06 15:16:49;;;;;;;2.22;1.50;;;23.50;28.90;;;;;;4959668;28;47204;-83
2024/01/06 15:19:15;;;;;;;1.90;1.53;;;23.50;28.90;;;;;;4932474;28;44812;-82
2024/01/06 15:21:42;;;;;;;3.13;1.70;;;23.60;29.00;;;;;;4949460;28;45575;-83
2024/01/06 15:24:08;;;;;;;2.53;1.58;;;23.50;29.00;;;;;;4983998;28;45633;-83
2024/01/06 15:26:34;;;;;;;2.17;1.70;;;23.50;28.90;;;;;;4964068;28;46191;-83
2024/01/06 15:29:00;;;;;;;2.73;1.80;;;23.50;29.00;;;;;;4981914;28;45845;-82
2024/01/06 15:31:26;;;;;;;3.15;1.80;;;23.50;29.00;;;;;;4976819;28;45412;-82
2024/01/06 15:33:52;;;;;;;2.47;1.80;;;23.50;29.00;;;;;;4955093;28;45403;-83
2024/01/06 15:36:17;;;;;;;2.60;1.85;;;23.50;29.00;;;;;;4948777;28;46674;-82
2024/01/06 15:38:43;;;;;;;2.15;1.70;;;23.50;29.00;;;;;;4953438;28;45688;-82
2024/01/06 15:41:10;;;;;;;2.88;1.90;;;23.50;29.00;;;;;;4965267;28;45360;-83
2024/01/06 15:43:37;;;;;;;2.45;1.70;;;23.50;29.00;;;;;;4986003;28;45054;-82
2024/01/06 15:46:03;;;;;;;2.47;1.90;;;23.50;29.00;;;;;;4981207;28;46573;-83
2024/01/06 15:48:29;;;;;;;2.78;1.70;;;23.50;29.00;;;;;;4938470;28;45503;-83
2024/01/06 15:50:55;;;;;;;3.28;2.05;;;23.50;29.00;;;;;;4984401;28;45226;-83
2024/01/06 15:53:21;;;;;;;3.30;2.00;;;23.50;29.00;;;;;;4988730;28;46305;-82
2024/01/06 15:55:47;;;;;;;2.85;2.00;;;23.50;29.00;;;;;;4999092;28;46659;-83
2024/01/06 15:58:13;;;;;;;2.70;2.00;;;23.50;29.00;;;;;;4978913;28;44782;-82
2024/01/06 16:00:38;;;;;;;2.85;2.10;;;23.50;29.10;;;;;;4985992;28;45264;-83
2024/01/06 16:03:06;;;;;;;2.17;1.67;;;23.50;29.00;;;;;;4959139;28;45349;-83
2024/01/06 16:05:31;;;;;;;2.20;1.90;;;23.50;29.10;;;;;;4937495;28;45663;-83
2024/01/06 16:07:57;;;;;;;2.72;1.85;;;23.50;29.10;;;;;;4956902;28;45320;-83
2024/01/06 16:10:23;;;;;;;3.10;1.85;;;23.50;29.10;;;;;;4988505;28;45018;-83
2024/01/06 16:12:51;;;;;;;1.97;1.60;;;23.50;29.10;;;;;;4989469;28;45566;-83
2024/01/06 16:15:19;;;;;;;2.60;1.90;;;23.50;29.10;;;;;;4961140;28;46050;-82
2024/01/06 16:17:45;;;;;;;2.80;2.15;;;23.50;29.10;;;;;;4984917;28;45573;-83
2024/01/06 16:20:11;;;;;;;2.25;1.90;;;23.50;29.10;;;;;;4953773;28;45422;-82
2024/01/06 16:22:37;;;;;;;2.55;1.90;;;23.50;29.10;;;;;;4960817;28;45535;-83
2024/01/06 16:25:09;;;;;;;3.47;1.93;;;23.50;29.10;;;;;;4985301;28;45529;-82
2024/01/06 16:27:35;;;;;;;2.67;2.10;;;23.60;29.10;;;;;;4956053;28;44874;-82
2024/01/06 16:30:01;;;;;;;2.88;2.10;;;23.60;29.10;;;;;;4989548;28;45506;-83
2024/01/06 16:32:26;;;;;;;2.92;2.08;;;23.60;29.10;;;;;;4977972;28;45375;-82
2024/01/06 16:34:52;;;;;;;3.10;2.17;;;23.60;29.10;;;;;;4971475;28;45861;-82
2024/01/06 16:37:18;;;;;;;2.90;2.10;;;23.60;29.10;;;;;;4984468;28;45326;-83
2024/01/06 16:39:44;;;;;;;3.97;2.10;;;23.60;29.10;;;;;;4965035;28;45273;-83
2024/01/06 16:42:10;;;;;;;3.35;2.05;;;23.70;29.10;;;;;;4989655;28;45563;-82
2024/01/06 16:44:35;;;;;;;2.60;2.20;;;23.60;29.10;;;;;;4971818;28;45996;-83
2024/01/06 16:47:01;;;;;;;3.77;2.37;;;23.60;29.10;;;;;;4964962;28;45501;-83